Pocasset, Massachusetts
Current Conditions -  °F | °C
As of 4:35 PM on Thursday 18 Dec 2014 (Local Time) from KFMH Reporting Station
Broken Clouds Broken Clouds  
Wind Chill: 33°   Ceiling: 3600
Heat Index: 39°   Visibility: 10mi
Dew Point: 28°   Wind: 9mph
Humidity: 65%   Direction: 280°W
Pressure: 29.82"   Gusts: NA
Location:  41.69°N, 70.64°W
Report Text: KFMH 182135Z AUTO 28008KT 10SM BKN036 04/M02 A2982 RMK AO2
Loading
Personal Weather Stations






























Interactive Weather Map New forecast layout! Learn more

10-Day Weather Forecast

Advertisements
Track Severe Weather on mobile